Aeroporto :
LOGIN :

Iscrizione | Disclaimer

   EN    FR    IT 

 










Sommario :    VFR   VFR Marginale   IFR   IFR Intensivo   IFR Molto Intensivo
Visibilità : 
Base nubi : 
>= 8 km
>= 3000ft
5 / 8 km
1000 / 3000 ft
1500m / 5 km
500 / 1000 ft
800 / 1500m
200 / 500 ft
< 800m
< 200 ft
Simboli :   Temporali  Nebbia  Neve Forte  Precipitazioni Forti  Vento > 20 kt
SIGMETs :   Varie  Temporali  Ghiacco  Turbolenza  Onda orograficha  Ceneri Vulcaniche






- Altitudine del aeroporto : 124 ft
- Codice IATA : NHT


EGWU - RAF Northolt

ULTIMO METAR :
  • 151320Z 10007KT 9999 FEW022 SCT033 OVC058 21/15 Q1007 TEMPO 7000 -RA RMK BLU TEMPO WHT

METARs OBSOLETI :
  • 151250Z 10006KT 9999 FEW047 SCT054 OVC080 20/16 Q1007 TEMPO 7000 -RA RMK BLU TEMPO WHT
  • 151220Z 10006KT 9999 FEW033 BKN040 OVC090 19/15 Q1007 TEMPO 7000 -RA SCT024
  • 151150Z 11009KT 9999 -RA FEW042 OVC064 19/14 Q1008 NOSIG RMK BLU BLU
  • 151120Z 11009KT CAVOK 20/13 Q1008 NOSIG RMK BLU BLU
  • 151050Z 10008KT CAVOK 20/12 Q1008 NOSIG RMK BLU BLU
  • 151020Z 12008KT CAVOK 20/12 Q1009 NOSIG RMK BLU BLU
  • 150950Z 12008KT CAVOK 20/12 Q1009 NOSIG
  • 150920Z 10007KT CAVOK 20/12 Q1009 NOSIG RMK BLU BLU
  • 150850Z 09004KT CAVOK 19/12 Q1009 NOSIG RMK BLU BLU

TAF TAF EGWU
Valido dal 15 a 12 ore il 16 a 06 ore UTC


151038Z 1512/1606 10010KT 9999 SCT040
TEMPO 1515/1524 5000 SHRA SCT024
TEMPO 1517/1603 BKN010
PROB40
TEMPO 1517/1523 3000 +SHRA BKN005 BKN008CB
PROB30
TEMPO 1520/1523 BKN003
BECMG 1603/1606 BKN010



MetMap, La meteo Aeronautica in un colpo d'occhio ! - Copyright ORBIFLY Dicembre 2007 - Disclaimer

ORBIFLY MET'MAP TEAM :

Programmazione e sviluppo : Alexandra Zaïnal
Concezione : Baudouin d'Aumeries
Supporto tecnico e logistico : Manuel Goepfert
Aiuto : Marc-Olivier Méhu
Aiuto per la traduzione : Arnaldo La Scala




FONTI E CREDITI :

   NOAA